createdAt,value
2023-03-08T00:01:23.816Z,50284.40
2023-03-08T00:03:57.084Z,50270.80
2023-03-08T00:06:26.829Z,50277.60
2023-03-08T00:08:59.987Z,50271.60
2023-03-08T00:11:29.824Z,50281.20
2023-03-08T00:13:58.614Z,50274.00
2023-03-08T00:16:26.936Z,50278.79
2023-03-08T00:18:55.831Z,50283.20
2023-03-08T00:21:24.318Z,50291.19
2023-03-08T00:23:54.761Z,50285.59
2023-03-08T00:26:23.203Z,50276.40
2023-03-08T00:28:51.637Z,50278.00
2023-03-08T00:31:21.887Z,50278.00
2023-03-08T00:33:55.023Z,50280.00
2023-03-08T00:36:23.736Z,50287.59
2023-03-08T00:38:52.746Z,50281.20
2023-03-08T00:41:21.252Z,50278.80
2023-03-08T00:43:50.233Z,50260.80
2023-03-08T00:46:18.591Z,50286.79
2023-03-08T00:48:46.895Z,50283.20
2023-03-08T00:51:19.669Z,50288.39
2023-03-08T00:53:49.016Z,50292.79
2023-03-08T00:56:17.406Z,50286.79
2023-03-08T00:58:46.283Z,50285.99
2023-03-08T01:01:17.761Z,50272.80
2023-03-08T01:03:48.034Z,50274.00
2023-03-08T01:06:17.738Z,50284.40
2023-03-08T01:08:46.918Z,50286.39
2023-03-08T01:11:24.798Z,50288.79
2023-03-08T01:13:53.918Z,50274.00
2023-03-08T01:16:33.690Z,50278.40
2023-03-08T01:19:02.808Z,50285.99
2023-03-08T01:21:32.298Z,50288.79
2023-03-08T01:24:01.500Z,50287.59
2023-03-08T01:26:31.319Z,50283.20
2023-03-08T01:28:59.649Z,50299.99
2023-03-08T01:31:30.722Z,50275.20
2023-03-08T01:34:01.027Z,50287.20
2023-03-08T01:36:29.601Z,50291.20
2023-03-08T01:39:01.104Z,50293.99
2023-03-08T01:41:31.959Z,50291.59
2023-03-08T01:44:01.211Z,50294.39
2023-03-08T01:46:31.064Z,50285.20
2023-03-08T01:49:20.537Z,50298.79
2023-03-08T01:52:02.978Z,50298.79
2023-03-08T01:54:53.596Z,50313.18
2023-03-08T01:57:51.936Z,50288.39
2023-03-08T02:00:23.505Z,50283.99
2023-03-08T02:03:03.329Z,50299.59
2023-03-08T02:05:32.652Z,50288.39
2023-03-08T02:08:06.791Z,50276.40
2023-03-08T02:10:38.418Z,50270.00
2023-03-08T02:13:07.843Z,50293.19
2023-03-08T02:15:38.231Z,50291.20
2023-03-08T02:18:06.811Z,50280.80
2023-03-08T02:20:38.950Z,50295.59
2023-03-08T02:23:18.753Z,50302.79
2023-03-08T02:26:06.469Z,50286.79
2023-03-08T02:28:35.238Z,50288.00
2023-03-08T02:31:03.470Z,50287.99
2023-03-08T02:33:32.519Z,50287.20
2023-03-08T02:36:05.981Z,50293.59
2023-03-08T02:38:34.769Z,50294.79
2023-03-08T02:41:02.981Z,50282.00
2023-03-08T02:43:32.006Z,50305.19
2023-03-08T02:46:01.112Z,50300.39
2023-03-08T02:48:29.362Z,50285.59
2023-03-08T02:50:57.653Z,50317.98
2023-03-08T02:53:25.890Z,50297.20
2023-03-08T02:55:54.356Z,50309.19
2023-03-08T02:58:23.711Z,50296.39
2023-03-08T03:00:52.228Z,50308.39
2023-03-08T03:03:20.460Z,50293.99
2023-03-08T03:05:52.127Z,50309.19
2023-03-08T03:08:25.528Z,50309.19
2023-03-08T03:10:56.142Z,50304.79
2023-03-08T03:13:24.301Z,50307.99
2023-03-08T03:15:52.972Z,50305.99
2023-03-08T03:18:21.211Z,50309.19
2023-03-08T03:20:49.506Z,50324.78
2023-03-08T03:23:17.780Z,50315.18
2023-03-08T03:25:50.814Z,50329.58
2023-03-08T03:28:19.799Z,50323.18
2023-03-08T03:30:49.797Z,50325.98
2023-03-08T03:33:18.169Z,50327.98
2023-03-08T03:35:46.672Z,50321.58
2023-03-08T03:38:15.011Z,50298.39
2023-03-08T03:40:45.332Z,50326.78
2023-03-08T03:43:14.244Z,50325.59
2023-03-08T03:45:42.576Z,50321.58
2023-03-08T03:48:10.894Z,50328.38
2023-03-08T03:50:39.491Z,50317.98
2023-03-08T03:53:13.217Z,50323.58
2023-03-08T03:55:41.798Z,50332.38
2023-03-08T03:58:10.020Z,50305.59
2023-03-08T04:00:38.749Z,50320.38
2023-03-08T04:03:12.971Z,50318.38
2023-03-08T04:05:41.439Z,50316.78
2023-03-08T04:08:10.222Z,50318.79
2023-03-08T04:10:39.876Z,50307.59
2023-03-08T04:13:12.392Z,50318.38
2023-03-08T04:15:41.249Z,50323.98
2023-03-08T04:18:11.227Z,50324.38
2023-03-08T04:20:42.125Z,50326.38
2023-03-08T04:23:10.997Z,50330.38
2023-03-08T04:25:41.160Z,50326.38
2023-03-08T04:28:10.766Z,50321.98
2023-03-08T04:30:40.845Z,50329.18
2023-03-08T04:33:09.580Z,50342.77
2023-03-08T04:35:46.067Z,50317.19
2023-03-08T04:38:15.640Z,50325.98
2023-03-08T04:41:05.475Z,50336.38
2023-03-08T04:43:45.682Z,50339.57
2023-03-08T04:46:15.023Z,50330.78
2023-03-08T04:48:43.663Z,50325.58
2023-03-08T04:51:14.564Z,50337.98
2023-03-08T04:53:45.486Z,50329.18
2023-03-08T04:56:16.016Z,50329.98
2023-03-08T04:58:45.358Z,50327.18
2023-03-08T05:01:18.300Z,50335.18
2023-03-08T05:03:51.491Z,50313.99
2023-03-08T05:06:22.478Z,50323.18
2023-03-08T05:08:50.992Z,50316.79
2023-03-08T05:11:22.605Z,50322.38
2023-03-08T05:13:53.184Z,50311.59
2023-03-08T05:16:21.632Z,50308.79
2023-03-08T05:18:50.084Z,50325.18
2023-03-08T05:21:22.145Z,50307.19
2023-03-08T05:23:53.469Z,50311.19
2023-03-08T05:26:22.851Z,50315.98
2023-03-08T05:28:52.135Z,50315.58
2023-03-08T05:31:23.975Z,50317.59
2023-03-08T05:33:53.968Z,50310.79
2023-03-08T05:36:31.561Z,50315.18
2023-03-08T05:39:00.293Z,50313.99
2023-03-08T05:41:35.964Z,50319.98
2023-03-08T05:44:04.852Z,50311.99
2023-03-08T05:46:34.720Z,50297.99
2023-03-08T05:49:04.331Z,50295.59
2023-03-08T05:51:34.149Z,50284.80
2023-03-08T05:54:02.519Z,50284.80
2023-03-08T05:56:32.013Z,50272.40
2023-03-08T05:59:07.487Z,50294.39
2023-03-08T06:01:36.411Z,50283.20
2023-03-08T06:04:11.701Z,50274.80
2023-03-08T06:06:41.455Z,50264.41
2023-03-08T06:09:10.489Z,50246.01
2023-03-08T06:11:40.962Z,50260.40
2023-03-08T06:14:11.591Z,50268.00
2023-03-08T06:16:41.571Z,50260.01
2023-03-08T06:19:11.753Z,50273.60
2023-03-08T06:21:41.892Z,50264.80
2023-03-08T06:24:10.331Z,50266.00
2023-03-08T06:26:39.530Z,50276.80
2023-03-08T06:29:07.991Z,50269.60
2023-03-08T06:31:37.978Z,50265.20
2023-03-08T06:34:07.117Z,50266.00
2023-03-08T06:36:35.545Z,50254.80
2023-03-08T06:39:03.966Z,50250.01
2023-03-08T06:41:33.205Z,50246.80
2023-03-08T06:44:01.879Z,50252.41
2023-03-08T06:46:30.282Z,50243.61
2023-03-08T06:49:01.567Z,50248.41
2023-03-08T06:51:30.210Z,50247.61
2023-03-08T06:53:58.496Z,50236.81
2023-03-08T06:56:28.511Z,50247.21
2023-03-08T06:58:56.814Z,50251.21
2023-03-08T07:01:31.173Z,50246.41
2023-03-08T07:04:02.747Z,50233.61
2023-03-08T07:06:31.046Z,50238.01
2023-03-08T07:08:59.274Z,50228.01
2023-03-08T07:11:29.871Z,50228.81
2023-03-08T07:13:59.497Z,50229.21
2023-03-08T07:16:28.320Z,50226.82
2023-03-08T07:18:57.145Z,50228.81
2023-03-08T07:21:25.501Z,50228.81
2023-03-08T07:23:53.796Z,50217.22
2023-03-08T07:26:22.018Z,50213.62
2023-03-08T07:28:50.672Z,50202.42
2023-03-08T07:31:18.959Z,50205.62
2023-03-08T07:33:47.264Z,50206.02
2023-03-08T07:36:15.659Z,50209.62
2023-03-08T07:38:44.050Z,50194.43
2023-03-08T07:41:12.607Z,50204.42
2023-03-08T07:43:41.161Z,50202.02
2023-03-08T07:46:25.943Z,50188.43
2023-03-08T07:48:55.482Z,50205.22
2023-03-08T07:51:27.127Z,50174.83
2023-03-08T07:53:55.342Z,50182.83
2023-03-08T07:56:23.570Z,50175.23
2023-03-08T07:58:51.813Z,50181.63
2023-03-08T08:01:20.047Z,50193.23
2023-03-08T08:03:48.225Z,50180.43
2023-03-08T08:06:17.059Z,50178.03
2023-03-08T08:08:45.617Z,50184.03
2023-03-08T08:11:16.195Z,50166.04
2023-03-08T08:13:44.854Z,50171.23
2023-03-08T08:16:16.943Z,50177.63
2023-03-08T08:18:45.904Z,50165.24
2023-03-08T08:21:16.282Z,50184.03
2023-03-08T08:23:44.949Z,50168.04
2023-03-08T08:26:22.506Z,50162.04
2023-03-08T08:28:53.081Z,50163.64
2023-03-08T08:31:24.566Z,50155.64
2023-03-08T08:33:52.885Z,50154.04
2023-03-08T08:36:23.548Z,50168.44
2023-03-08T08:38:54.787Z,50157.24
2023-03-08T08:41:24.025Z,50153.24
2023-03-08T08:43:52.485Z,50152.84
2023-03-08T08:46:20.741Z,50140.45
2023-03-08T08:48:52.661Z,50145.24
2023-03-08T08:51:21.089Z,50138.45
2023-03-08T08:53:53.901Z,50140.45
2023-03-08T08:56:27.932Z,50140.05
2023-03-08T08:59:01.416Z,50155.24
2023-03-08T09:01:33.654Z,50157.24
2023-03-08T09:04:02.138Z,50164.04
2023-03-08T09:06:31.212Z,50178.03
2023-03-08T09:09:00.372Z,50190.83
2023-03-08T09:11:28.664Z,50177.23
2023-03-08T09:13:57.720Z,50177.23
2023-03-08T09:16:31.781Z,50198.42
2023-03-08T09:19:02.637Z,50186.82
2023-03-08T09:21:32.481Z,50170.04
2023-03-08T09:24:04.119Z,50185.23
2023-03-08T09:26:33.901Z,50171.23
2023-03-08T09:29:05.711Z,50175.23
2023-03-08T09:31:36.633Z,50168.84
2023-03-08T09:34:09.377Z,50168.04
2023-03-08T09:36:39.969Z,50170.43
2023-03-08T09:39:10.326Z,50153.24
2023-03-08T09:41:39.203Z,50143.64
2023-03-08T09:44:10.635Z,50170.44
2023-03-08T09:46:48.764Z,50134.05
2023-03-08T09:49:27.073Z,50128.05
2023-03-08T09:52:05.316Z,50124.85
2023-03-08T09:54:38.451Z,50142.84
2023-03-08T09:57:17.249Z,50132.45
2023-03-08T10:00:12.229Z,50128.85
2023-03-08T10:03:03.999Z,50120.45
2023-03-08T10:05:45.782Z,50113.66
2023-03-08T10:08:18.573Z,50112.45
2023-03-08T10:11:07.557Z,50120.85
2023-03-08T10:13:43.612Z,50119.65
2023-03-08T10:16:25.510Z,50125.25
2023-03-08T10:19:12.987Z,50138.04
2023-03-08T10:21:43.809Z,50140.05
2023-03-08T10:24:27.028Z,50149.64
2023-03-08T10:27:04.820Z,50155.24
2023-03-08T10:29:33.257Z,50166.04
2023-03-08T10:32:02.380Z,50169.24
2023-03-08T10:34:32.943Z,50138.45
2023-03-08T10:37:04.830Z,50152.84
2023-03-08T10:39:33.082Z,50154.04
2023-03-08T10:42:06.854Z,50142.45
2023-03-08T10:44:40.396Z,50136.45
2023-03-08T10:47:20.732Z,50160.44
2023-03-08T10:49:48.980Z,50146.84
2023-03-08T10:52:28.489Z,50154.44
2023-03-08T10:55:17.395Z,50130.45
2023-03-08T10:57:57.319Z,50141.64
2023-03-08T11:00:37.815Z,50138.05
2023-03-08T11:03:16.983Z,50142.84
2023-03-08T11:05:59.293Z,50124.05
2023-03-08T11:08:34.467Z,50121.65
2023-03-08T11:11:11.987Z,50135.25
2023-03-08T11:13:47.214Z,50126.45
2023-03-08T11:17:23.549Z,50125.65
2023-03-08T11:20:21.405Z,50120.45
2023-03-08T11:23:02.648Z,50103.66
2023-03-08T11:25:37.218Z,50098.46
2023-03-08T11:28:08.581Z,50091.26
2023-03-08T11:30:50.009Z,50095.66
2023-03-08T11:33:38.862Z,50090.46
2023-03-08T11:36:20.479Z,50086.86
2023-03-08T11:38:59.236Z,50080.07
2023-03-08T11:41:38.685Z,50081.27
2023-03-08T11:44:31.389Z,50068.87
2023-03-08T11:47:38.994Z,50074.47
2023-03-08T11:50:22.631Z,50084.87
2023-03-08T11:53:06.299Z,50086.87
2023-03-08T11:55:50.891Z,50075.27
2023-03-08T11:58:49.244Z,50094.06
2023-03-08T12:01:29.645Z,50071.27
2023-03-08T12:04:06.760Z,50076.47
2023-03-08T12:06:47.275Z,50077.66
2023-03-08T12:09:53.133Z,50093.66
2023-03-08T12:12:35.260Z,50080.07
2023-03-08T12:15:23.617Z,50090.06
2023-03-08T12:18:18.617Z,50084.46
2023-03-08T12:20:48.500Z,50089.66
2023-03-08T12:23:30.705Z,50100.05
2023-03-08T12:26:40.652Z,50090.06
2023-03-08T12:29:26.797Z,50084.87
2023-03-08T12:31:55.764Z,50106.86
2023-03-08T12:34:36.303Z,50087.26
2023-03-08T12:37:19.305Z,50084.07
2023-03-08T12:40:06.086Z,50070.07
2023-03-08T12:42:38.322Z,50094.86
2023-03-08T12:45:30.290Z,50087.66
2023-03-08T12:48:02.250Z,50088.87
2023-03-08T12:50:39.068Z,50071.27
2023-03-08T12:53:31.603Z,50080.07
2023-03-08T12:56:02.771Z,50078.07
2023-03-08T12:58:34.152Z,50092.06
2023-03-08T13:01:24.274Z,50083.66
2023-03-08T13:03:52.637Z,50080.46
2023-03-08T13:06:24.551Z,50098.06
2023-03-08T13:09:06.680Z,50086.07
2023-03-08T13:11:43.587Z,50105.26
2023-03-08T13:14:41.365Z,50111.66
2023-03-08T13:17:35.430Z,50094.86
2023-03-08T13:20:22.147Z,50097.66
2023-03-08T13:22:53.558Z,50097.26
2023-03-08T13:25:33.345Z,50092.06
2023-03-08T13:28:15.319Z,50088.06
2023-03-08T13:31:00.199Z,50089.26
2023-03-08T13:33:37.541Z,50101.66
2023-03-08T13:36:16.312Z,50087.66
2023-03-08T13:38:45.459Z,50087.26
2023-03-08T13:41:13.599Z,50095.26
2023-03-08T13:43:41.879Z,50084.06
2023-03-08T13:46:17.159Z,50113.65
2023-03-08T13:48:46.042Z,50106.46
2023-03-08T13:51:19.229Z,50102.86
2023-03-08T13:53:47.770Z,50081.27
2023-03-08T13:56:26.320Z,50090.86
2023-03-08T13:58:58.140Z,50112.86
2023-03-08T14:01:27.803Z,50100.05
2023-03-08T14:03:58.528Z,50092.46
2023-03-08T14:06:34.191Z,50092.06
2023-03-08T14:09:03.927Z,50084.86
2023-03-08T14:11:36.131Z,50098.86
2023-03-08T14:14:07.375Z,50095.26
2023-03-08T14:16:38.439Z,50109.25
2023-03-08T14:19:35.542Z,50101.66
2023-03-08T14:22:32.178Z,50105.26
2023-03-08T14:25:02.634Z,50103.26
2023-03-08T14:27:39.139Z,50100.06
2023-03-08T14:30:22.814Z,50115.26
2023-03-08T14:33:00.725Z,50109.66
2023-03-08T14:35:41.942Z,50111.65
2023-03-08T14:38:31.345Z,50117.65
2023-03-08T14:41:06.418Z,50114.05
2023-03-08T14:43:37.188Z,50100.86
2023-03-08T14:46:17.646Z,50104.86
2023-03-08T14:48:58.295Z,50110.46
2023-03-08T14:51:37.197Z,50122.05
2023-03-08T14:54:20.585Z,50113.25
2023-03-08T14:56:49.944Z,50132.05
2023-03-08T14:59:27.483Z,50119.25
2023-03-08T15:01:56.517Z,50121.65
2023-03-08T15:04:25.908Z,50124.45
2023-03-08T15:06:55.299Z,50118.05
2023-03-08T15:09:23.736Z,50130.05
2023-03-08T15:11:54.224Z,50120.45
2023-03-08T15:14:22.494Z,50132.85
2023-03-08T15:16:51.417Z,50140.84
2023-03-08T15:19:20.252Z,50122.85
2023-03-08T15:21:49.747Z,50140.45
2023-03-08T15:24:19.443Z,50144.45
2023-03-08T15:26:47.870Z,50141.24
2023-03-08T15:29:28.149Z,50132.05
2023-03-08T15:31:57.824Z,50139.64
2023-03-08T15:34:28.677Z,50152.84
2023-03-08T15:36:57.510Z,50142.84
2023-03-08T15:39:28.371Z,50146.84
2023-03-08T15:42:01.592Z,50148.04
2023-03-08T15:44:34.970Z,50154.84
2023-03-08T15:47:04.154Z,50161.24
2023-03-08T15:49:32.451Z,50143.24
2023-03-08T15:52:00.813Z,50163.24
2023-03-08T15:54:29.538Z,50152.84
2023-03-08T15:56:58.652Z,50152.84
2023-03-08T15:59:27.433Z,50180.43
2023-03-08T16:01:55.797Z,50171.24
2023-03-08T16:04:24.043Z,50198.82
2023-03-08T16:06:52.336Z,50168.44
2023-03-08T16:09:20.630Z,50172.04
2023-03-08T16:11:51.180Z,50168.04
2023-03-08T16:14:20.027Z,50159.64
2023-03-08T16:16:48.286Z,50164.44
2023-03-08T16:19:16.574Z,50168.04
2023-03-08T16:21:44.815Z,50175.23
2023-03-08T16:24:13.452Z,50202.42
2023-03-08T16:26:44.054Z,50181.63
2023-03-08T16:29:12.310Z,50187.23
2023-03-08T16:31:40.952Z,50181.63
2023-03-08T16:34:11.819Z,50187.23
2023-03-08T16:36:40.031Z,50203.62
2023-03-08T16:39:08.672Z,50198.82
2023-03-08T16:41:39.554Z,50191.23
2023-03-08T16:44:26.130Z,50190.03
2023-03-08T16:46:55.068Z,50199.63
2023-03-08T16:49:28.591Z,50202.82
2023-03-08T16:51:59.054Z,50194.03
2023-03-08T16:54:28.836Z,50184.03
2023-03-08T16:56:59.788Z,50191.23
2023-03-08T16:59:29.554Z,50203.22
2023-03-08T17:02:01.320Z,50199.23
2023-03-08T17:04:29.700Z,50200.02
2023-03-08T17:06:58.071Z,50198.83
2023-03-08T17:09:26.367Z,50190.82
2023-03-08T17:11:54.936Z,50206.42
2023-03-08T17:14:23.467Z,50200.43
2023-03-08T17:16:51.796Z,50206.02
2023-03-08T17:19:20.799Z,50203.23
2023-03-08T17:21:51.340Z,50220.42
2023-03-08T17:24:20.099Z,50217.22
2023-03-08T17:26:57.217Z,50199.23
2023-03-08T17:29:26.592Z,50190.43
2023-03-08T17:31:57.242Z,50189.23
2023-03-08T17:34:25.738Z,50201.63
2023-03-08T17:36:56.567Z,50217.22
2023-03-08T17:39:25.488Z,50206.02
2023-03-08T17:41:57.018Z,50186.03
2023-03-08T17:44:25.303Z,50193.23
2023-03-08T17:46:53.822Z,50188.82
2023-03-08T17:49:25.239Z,50191.63
2023-03-08T17:51:53.896Z,50211.22
2023-03-08T17:54:23.336Z,50202.82
2023-03-08T17:56:51.724Z,50193.63
2023-03-08T17:59:21.258Z,50196.43
2023-03-08T18:01:49.537Z,50193.23
2023-03-08T18:04:19.249Z,50201.63
2023-03-08T18:06:49.925Z,50202.43
2023-03-08T18:09:18.460Z,50190.82
2023-03-08T18:11:49.318Z,50200.82
2023-03-08T18:14:24.269Z,50205.62
2023-03-08T18:16:54.497Z,50204.43
2023-03-08T18:19:22.829Z,50211.62
2023-03-08T18:21:56.056Z,50203.22
2023-03-08T18:24:27.222Z,50197.23
2023-03-08T18:26:57.088Z,50212.42
2023-03-08T18:29:29.802Z,50201.23
2023-03-08T18:31:58.850Z,50192.02
2023-03-08T18:34:28.203Z,50204.82
2023-03-08T18:36:59.201Z,50202.82
2023-03-08T18:39:27.702Z,50200.82
2023-03-08T18:41:58.448Z,50194.82
2023-03-08T18:44:30.294Z,50196.02
2023-03-08T18:47:01.387Z,50201.23
2023-03-08T18:49:29.808Z,50210.82
2023-03-08T18:51:58.947Z,50216.02
2023-03-08T18:54:27.152Z,50205.22
2023-03-08T18:56:57.063Z,50210.02
2023-03-08T18:59:26.983Z,50204.42
2023-03-08T19:01:55.266Z,50203.22
2023-03-08T19:04:24.818Z,50186.43
2023-03-08T19:06:53.058Z,50222.41
2023-03-08T19:09:25.524Z,50191.63
2023-03-08T19:11:53.872Z,50216.82
2023-03-08T19:14:23.606Z,50207.62
2023-03-08T19:16:52.292Z,50206.82
2023-03-08T19:19:20.832Z,50215.22
2023-03-08T19:21:51.799Z,50204.82
2023-03-08T19:24:21.319Z,50212.42
2023-03-08T19:26:53.053Z,50208.82
2023-03-08T19:29:30.146Z,50222.02
2023-03-08T19:32:06.644Z,50219.22
2023-03-08T19:34:43.631Z,50216.42
2023-03-08T19:37:13.778Z,50200.42
2023-03-08T19:39:43.780Z,50228.41
2023-03-08T19:42:15.566Z,50222.02
2023-03-08T19:44:48.564Z,50232.02
2023-03-08T19:47:17.843Z,50208.02
2023-03-08T19:49:47.045Z,50213.22
2023-03-08T19:52:15.379Z,50210.82
2023-03-08T19:54:44.644Z,50220.42
2023-03-08T19:57:13.407Z,50225.21
2023-03-08T19:59:41.906Z,50212.82
2023-03-08T20:02:12.783Z,50213.22
2023-03-08T20:04:43.262Z,50220.02
2023-03-08T20:07:12.531Z,50205.62
2023-03-08T20:09:42.499Z,50213.22
2023-03-08T20:12:10.866Z,50213.62
2023-03-08T20:14:40.120Z,50217.62
2023-03-08T20:17:08.313Z,50216.02
2023-03-08T20:19:36.826Z,50229.62
2023-03-08T20:22:05.059Z,50214.02
2023-03-08T20:24:33.215Z,50224.41
2023-03-08T20:27:02.591Z,50233.61
2023-03-08T20:29:31.156Z,50234.01
2023-03-08T20:31:59.712Z,50217.22
2023-03-08T20:34:27.988Z,50239.21
2023-03-08T20:36:56.902Z,50222.41
2023-03-08T20:39:25.565Z,50242.41
2023-03-08T20:41:54.175Z,50236.81
2023-03-08T20:44:22.688Z,50214.42
2023-03-08T20:46:50.907Z,50242.41
2023-03-08T20:49:19.240Z,50228.41
2023-03-08T20:51:48.207Z,50227.21
2023-03-08T20:54:17.080Z,50220.42
2023-03-08T20:56:45.362Z,50219.21
2023-03-08T20:59:16.121Z,50237.61
2023-03-08T21:01:45.161Z,50212.42
2023-03-08T21:04:13.526Z,50218.82
2023-03-08T21:06:41.944Z,50242.01
2023-03-08T21:09:11.890Z,50227.61
2023-03-08T21:11:41.086Z,50216.41
2023-03-08T21:14:11.098Z,50215.21
2023-03-08T21:16:39.501Z,50232.41
2023-03-08T21:19:09.071Z,50238.81
2023-03-08T21:21:43.605Z,50215.62
2023-03-08T21:24:15.366Z,50243.21
2023-03-08T21:26:45.731Z,50230.82
2023-03-08T21:29:17.425Z,50216.42
2023-03-08T21:31:49.075Z,50214.82
2023-03-08T21:34:18.802Z,50216.82
2023-03-08T21:36:47.280Z,50226.81
2023-03-08T21:39:16.313Z,50222.02
2023-03-08T21:41:46.943Z,50230.02
2023-03-08T21:44:18.540Z,50210.02
2023-03-08T21:46:47.949Z,50217.62
2023-03-08T21:49:28.240Z,50213.22
2023-03-08T21:51:58.216Z,50212.82
2023-03-08T21:54:28.748Z,50218.82
2023-03-08T21:56:58.307Z,50215.22
2023-03-08T21:59:27.954Z,50220.82
2023-03-08T22:01:58.883Z,50208.42
2023-03-08T22:04:27.844Z,50227.21
2023-03-08T22:06:56.713Z,50228.81
2023-03-08T22:09:28.261Z,50214.82
2023-03-08T22:11:59.629Z,50212.82
2023-03-08T22:14:28.719Z,50223.22
2023-03-08T22:16:56.938Z,50220.82
2023-03-08T22:19:25.762Z,50216.82
2023-03-08T22:21:54.075Z,50224.42
2023-03-08T22:24:22.342Z,50216.82
2023-03-08T22:26:50.536Z,50215.22
2023-03-08T22:29:18.717Z,50215.21
2023-03-08T22:31:47.499Z,50236.41
2023-03-08T22:34:15.701Z,50204.02
2023-03-08T22:36:43.912Z,50224.02
2023-03-08T22:39:12.242Z,50221.22
2023-03-08T22:41:40.426Z,50221.62
2023-03-08T22:44:13.720Z,50240.01
2023-03-08T22:46:42.664Z,50212.42
2023-03-08T22:49:11.911Z,50214.02
2023-03-08T22:51:41.733Z,50213.22
2023-03-08T22:54:22.083Z,50206.42
2023-03-08T22:56:50.530Z,50208.82
2023-03-08T22:59:19.351Z,50208.02
2023-03-08T23:01:47.649Z,50202.82
2023-03-08T23:04:15.889Z,50230.81
2023-03-08T23:06:44.602Z,50215.62
2023-03-08T23:09:13.738Z,50224.81
2023-03-08T23:11:42.645Z,50222.82
2023-03-08T23:14:11.729Z,50194.43
2023-03-08T23:16:42.297Z,50206.82
2023-03-08T23:19:17.402Z,50201.23
2023-03-08T23:21:45.988Z,50204.82
2023-03-08T23:24:15.492Z,50194.83
2023-03-08T23:26:46.357Z,50211.22
2023-03-08T23:29:15.142Z,50207.62
2023-03-08T23:31:45.700Z,50193.23
2023-03-08T23:34:14.391Z,50198.82
2023-03-08T23:36:42.989Z,50207.22
2023-03-08T23:39:11.524Z,50200.82
2023-03-08T23:41:41.989Z,50192.83
2023-03-08T23:44:11.132Z,50200.82
2023-03-08T23:46:39.476Z,50194.82
2023-03-08T23:49:09.755Z,50192.43
2023-03-08T23:51:38.139Z,50189.63
2023-03-08T23:54:06.920Z,50185.23
2023-03-08T23:56:40.582Z,50187.63
2023-03-08T23:59:18.438Z,50188.83
